Time;durP1;ratioP1;P1;durP2;ratioP2;P2;SDS_P1;SDS_P2;PMS_P1;PMS_P2;Temp;Humidity;BMP_temperature;BMP_pressure;BME280_temperature;BME280_humidity;BME280_pressure;Samples;Min_cycle;Max_cycle;Signal;HPM_P1;HPM_P2
2023/04/13 00:02:02;;;;;;;;;;;;;;;;;;5002764;28;19917;-71
2023/04/13 00:04:30;;;;;;;;;;;;;;;;;;5002415;28;19925;-70
2023/04/13 00:06:57;;;;;;;;;;;;;;;;;;5018666;28;19956;-72
2023/04/13 00:09:26;;;;;;;;;;;;;;;;;;5000878;28;19917;-70
2023/04/13 00:11:51;;;;;;;;;;;;;;;;;;5003059;28;19952;-72
2023/04/13 00:14:19;;;;;;;;;;;;;;;;;;5020550;28;19921;-72
2023/04/13 00:16:46;;;;;;;;;;;;;;;;;;5018420;28;19921;-70
2023/04/13 00:19:11;;;;;;;;;;;;;;;;;;5020623;28;20063;-71
2023/04/13 00:21:40;;;;;;;;;;;;;;;;;;5004422;28;19921;-71
2023/04/13 00:24:06;;;;;;;;;;;;;;;;;;5003074;28;19921;-72
2023/04/13 00:26:32;;;;;;;;;;;;;;;;;;5000474;28;19918;-69
2023/04/13 00:28:57;;;;;;;;;;;;;;;;;;5003882;28;19983;-70
2023/04/13 00:31:23;;;;;;;;;;;;;;;;;;4988849;28;20007;-71
2023/04/13 00:33:48;;;;;;;;;;;;;;;;;;5021181;28;19925;-69
2023/04/13 00:36:14;;;;;;;;;;;;;;;;;;5017944;28;20385;-72
2023/04/13 00:38:43;;;;;;;;;;;;;;;;;;4993015;28;20032;-70
2023/04/13 00:41:09;;;;;;;;;;;;;;;;;;5022934;28;19971;-72
2023/04/13 00:43:34;;;;;;;;;;;;;;;;;;5057550;28;19952;-71
2023/04/13 00:46:00;;;;;;;;;;;;;;;;;;5055705;28;20007;-70
2023/04/13 00:48:26;;;;;;;;;;;;;;;;;;5022018;28;20588;-70
2023/04/13 00:50:51;;;;;;;;;;;;;;;;;;5057283;28;20003;-70
2023/04/13 00:53:17;;;;;;;;;;;;;;;;;;5022058;28;19925;-71
2023/04/13 00:55:43;;;;;;;;;;;;;;;;;;5051988;28;20350;-70
2023/04/13 00:58:08;;;;;;;;;;;;;;;;;;5022545;28;19981;-69
2023/04/13 01:00:37;;;;;;;;;;;;;;;;;;5022245;28;19917;-71
2023/04/13 01:03:06;;;;;;;;;;;;;;;;;;5057599;28;19932;-72
2023/04/13 01:05:31;;;;;;;;;;;;;;;;;;5040905;28;19921;-71
2023/04/13 01:07:57;;;;;;;;;;;;;;;;;;5055932;28;19917;-71
2023/04/13 01:10:26;;;;;;;;;;;;;;;;;;5030099;28;19929;-75
2023/04/13 01:12:55;;;;;;;;;;;;;;;;;;5044433;28;19920;-75
2023/04/13 01:15:24;;;;;;;;;;;;;;;;;;5057282;28;19924;-72
2023/04/13 01:17:52;;;;;;;;;;;;;;;;;;5040805;28;19921;-77
2023/04/13 01:20:21;;;;;;;;;;;;;;;;;;5054670;28;20395;-75
2023/04/13 01:22:46;;;;;;;;;;;;;;;;;;5036504;28;19916;-75
2023/04/13 01:25:13;;;;;;;;;;;;;;;;;;5056326;28;20436;-73
2023/04/13 01:27:41;;;;;;;;;;;;;;;;;;5039189;28;20058;-74
2023/04/13 01:30:09;;;;;;;;;;;;;;;;;;5045582;28;19928;-80
2023/04/13 01:32:38;;;;;;;;;;;;;;;;;;5063600;28;19921;-81
2023/04/13 01:35:03;;;;;;;;;;;;;;;;;;5045005;28;19928;-79
2023/04/13 01:37:31;;;;;;;;;;;;;;;;;;5058385;28;20333;-76
2023/04/13 01:39:58;;;;;;;;;;;;;;;;;;5024463;28;20155;-75
2023/04/13 01:42:26;;;;;;;;;;;;;;;;;;5024834;28;19920;-76
2023/04/13 01:44:55;;;;;;;;;;;;;;;;;;5041921;28;20437;-74
2023/04/13 01:47:21;;;;;;;;;;;;;;;;;;5058058;28;19916;-74
2023/04/13 01:49:46;;;;;;;;;;;;;;;;;;5026740;28;20240;-74
2023/04/13 01:52:12;;;;;;;;;;;;;;;;;;5057539;28;19927;-75
2023/04/13 01:54:37;;;;;;;;;;;;;;;;;;5024491;28;20002;-75
2023/04/13 01:57:02;;;;;;;;;;;;;;;;;;5024531;28;19917;-74
2023/04/13 01:59:30;;;;;;;;;;;;;;;;;;5040416;28;19927;-73
2023/04/13 02:02:01;;;;;;;;;;;;;;;;;;5022998;28;19932;-73
2023/04/13 02:04:27;;;;;;;;;;;;;;;;;;5055828;28;19917;-73
2023/04/13 02:06:52;;;;;;;;;;;;;;;;;;5055489;28;20872;-73
2023/04/13 02:09:18;;;;;;;;;;;;;;;;;;5057461;28;19917;-74
2023/04/13 02:11:44;;;;;;;;;;;;;;;;;;5023826;28;19949;-72
2023/04/13 02:14:09;;;;;;;;;;;;;;;;;;5055358;28;20111;-74
2023/04/13 02:16:35;;;;;;;;;;;;;;;;;;5024029;28;20073;-72
2023/04/13 02:19:00;;;;;;;;;;;;;;;;;;5038352;28;20277;-71
2023/04/13 02:21:29;;;;;;;;;;;;;;;;;;5024669;28;19921;-73
2023/04/13 02:23:55;;;;;;;;;;;;;;;;;;5034467;28;20050;-74
2023/04/13 02:26:20;;;;;;;;;;;;;;;;;;5023989;28;20556;-74
2023/04/13 02:28:46;;;;;;;;;;;;;;;;;;5055823;28;19916;-72
2023/04/13 02:31:18;;;;;;;;;;;;;;;;;;5022438;28;19921;-72
2023/04/13 02:33:46;;;;;;;;;;;;;;;;;;5038146;28;20015;-71
2023/04/13 02:36:16;;;;;;;;;;;;;;;;;;5036706;28;19928;-72
2023/04/13 02:42:03;;;;;;;;;;;;;;;;;;5025984;28;20576;-73
2023/04/13 02:44:32;;;;;;;;;;;;;;;;;;5020102;28;19971;-70
2023/04/13 02:47:01;;;;;;;;;;;;;;;;;;5052444;28;19992;-71
2023/04/13 02:49:35;;;;;;;;;;;;;;;;;;5053840;28;19921;-71
2023/04/13 02:52:10;;;;;;;;;;;;;;;;;;5022159;28;19967;-69
2023/04/13 02:54:35;;;;;;;;;;;;;;;;;;5057277;28;21285;-73
2023/04/13 02:57:01;;;;;;;;;;;;;;;;;;5039952;28;19917;-73
2023/04/13 02:59:29;;;;;;;;;;;;;;;;;;5040833;28;19928;-72
2023/04/13 03:01:58;;;;;;;;;;;;;;;;;;5041598;28;21928;-74
2023/04/13 03:04:58;;;;;;;;;;;;;;;;;;5057846;28;19928;-71
2023/04/13 03:07:23;;;;;;;;;;;;;;;;;;5024463;28;19921;-72
2023/04/13 03:09:48;;;;;;;;;;;;;;;;;;5023778;28;19921;-72
2023/04/13 03:12:14;;;;;;;;;;;;;;;;;;5056540;28;19921;-73
2023/04/13 03:14:43;;;;;;;;;;;;;;;;;;5037093;28;20011;-73
2023/04/13 03:17:10;;;;;;;;;;;;;;;;;;5055126;28;20295;-73
2023/04/13 03:19:35;;;;;;;;;;;;;;;;;;5021409;28;19920;-73
2023/04/13 03:22:03;;;;;;;;;;;;;;;;;;5057505;28;19920;-74
2023/04/13 03:24:33;;;;;;;;;;;;;;;;;;5040160;28;19948;-72
2023/04/13 03:26:58;;;;;;;;;;;;;;;;;;5057127;28;20623;-71
2023/04/13 03:29:23;;;;;;;;;;;;;;;;;;5057795;28;19925;-74
2023/04/13 03:31:49;;;;;;;;;;;;;;;;;;5056971;28;19921;-72
2023/04/13 03:34:18;;;;;;;;;;;;;;;;;;5040201;28;19932;-72
2023/04/13 03:36:46;;;;;;;;;;;;;;;;;;5042273;28;20860;-74
2023/04/13 03:39:12;;;;;;;;;;;;;;;;;;5040850;28;20030;-73
2023/04/13 03:41:40;;;;;;;;;;;;;;;;;;5027439;28;19932;-71
2023/04/13 03:44:08;;;;;;;;;;;;;;;;;;5040825;28;19920;-72
2023/04/13 03:46:37;;;;;;;;;;;;;;;;;;5056407;28;20003;-74
2023/04/13 03:49:05;;;;;;;;;;;;;;;;;;5040925;28;20831;-73
2023/04/13 03:51:30;;;;;;;;;;;;;;;;;;5058633;28;19921;-74
2023/04/13 03:53:56;;;;;;;;;;;;;;;;;;5038705;28;20025;-73
2023/04/13 03:56:22;;;;;;;;;;;;;;;;;;5058407;28;20471;-73
2023/04/13 03:58:47;;;;;;;;;;;;;;;;;;5041582;28;19932;-73
2023/04/13 04:01:15;;;;;;;;;;;;;;;;;;5040898;28;20004;-72
2023/04/13 04:03:43;;;;;;;;;;;;;;;;;;5042515;28;20381;-74
2023/04/13 04:06:09;;;;;;;;;;;;;;;;;;5048940;28;19921;-74
2023/04/13 04:08:34;;;;;;;;;;;;;;;;;;5063007;28;19928;-74
2023/04/13 04:10:59;;;;;;;;;;;;;;;;;;5068724;28;19921;-72
2023/04/13 04:13:27;;;;;;;;;;;;;;;;;;5034021;28;19931;-73
2023/04/13 04:15:53;;;;;;;;;;;;;;;;;;5036879;28;19913;-73
2023/04/13 04:18:18;;;;;;;;;;;;;;;;;;5048002;28;19927;-75
2023/04/13 04:20:44;;;;;;;;;;;;;;;;;;5064915;28;19917;-74
2023/04/13 04:23:14;;;;;;;;;;;;;;;;;;5046893;28;19970;-75
2023/04/13 04:25:39;;;;;;;;;;;;;;;;;;5062061;28;19920;-75
2023/04/13 04:28:05;;;;;;;;;;;;;;;;;;5045174;28;20399;-75
2023/04/13 04:30:32;;;;;;;;;;;;;;;;;;5031776;28;19925;-74
2023/04/13 04:32:58;;;;;;;;;;;;;;;;;;5047331;28;19951;-74
2023/04/13 04:35:25;;;;;;;;;;;;;;;;;;5046519;28;20595;-75
2023/04/13 04:37:50;;;;;;;;;;;;;;;;;;5048691;28;20031;-75
2023/04/13 04:40:15;;;;;;;;;;;;;;;;;;5043475;28;19929;-74
2023/04/13 04:42:41;;;;;;;;;;;;;;;;;;5031681;28;19967;-74
2023/04/13 04:45:07;;;;;;;;;;;;;;;;;;5035926;28;19920;-74
2023/04/13 04:47:36;;;;;;;;;;;;;;;;;;5053659;28;19924;-74
2023/04/13 04:50:02;;;;;;;;;;;;;;;;;;5071810;28;19989;-74
2023/04/13 04:52:28;;;;;;;;;;;;;;;;;;5045825;28;20835;-74
2023/04/13 04:54:53;;;;;;;;;;;;;;;;;;5065455;28;19920;-75
2023/04/13 04:57:22;;;;;;;;;;;;;;;;;;5047416;28;19920;-75
2023/04/13 04:59:48;;;;;;;;;;;;;;;;;;5031526;28;19921;-75
2023/04/13 05:02:13;;;;;;;;;;;;;;;;;;5062560;28;19916;-74
2023/04/13 05:04:40;;;;;;;;;;;;;;;;;;5059301;28;19913;-75
2023/04/13 05:07:15;;;;;;;;;;;;;;;;;;5060192;28;19928;-75
2023/04/13 05:10:01;;;;;;;;;;;;;;;;;;5028631;28;19917;-75
2023/04/13 05:12:26;;;;;;;;;;;;;;;;;;5026245;28;20434;-75
2023/04/13 05:14:51;;;;;;;;;;;;;;;;;;5024638;28;19967;-76
2023/04/13 05:17:17;;;;;;;;;;;;;;;;;;5059281;28;19920;-75
2023/04/13 05:19:42;;;;;;;;;;;;;;;;;;5025809;28;20537;-74
2023/04/13 05:22:07;;;;;;;;;;;;;;;;;;5045451;28;19916;-75
2023/04/13 05:24:34;;;;;;;;;;;;;;;;;;5028175;28;19940;-74
2023/04/13 05:27:00;;;;;;;;;;;;;;;;;;5056751;28;20054;-75
2023/04/13 05:29:25;;;;;;;;;;;;;;;;;;5040757;28;19999;-76
2023/04/13 05:31:51;;;;;;;;;;;;;;;;;;5038566;28;19975;-75
2023/04/13 05:34:16;;;;;;;;;;;;;;;;;;5056847;28;19960;-75
2023/04/13 05:36:41;;;;;;;;;;;;;;;;;;5023304;28;20622;-73
2023/04/13 05:39:07;;;;;;;;;;;;;;;;;;5056805;28;19960;-75
2023/04/13 05:41:32;;;;;;;;;;;;;;;;;;5054119;28;20870;-75
2023/04/13 05:43:58;;;;;;;;;;;;;;;;;;5024104;28;20302;-76
2023/04/13 05:46:23;;;;;;;;;;;;;;;;;;5042432;28;19921;-76
2023/04/13 05:48:48;;;;;;;;;;;;;;;;;;5022020;28;19994;-76
2023/04/13 05:51:17;;;;;;;;;;;;;;;;;;5039455;28;19917;-75
2023/04/13 05:53:42;;;;;;;;;;;;;;;;;;5023091;28;19924;-77
2023/04/13 05:56:07;;;;;;;;;;;;;;;;;;5038192;28;19921;-75
2023/04/13 05:58:33;;;;;;;;;;;;;;;;;;5053632;28;19924;-75
2023/04/13 06:00:59;;;;;;;;;;;;;;;;;;5035668;28;19936;-76
2023/04/13 06:03:26;;;;;;;;;;;;;;;;;;5052416;28;19917;-75
2023/04/13 06:05:51;;;;;;;;;;;;;;;;;;5038674;28;19924;-75
2023/04/13 06:08:17;;;;;;;;;;;;;;;;;;5037771;28;19921;-75
2023/04/13 06:10:43;;;;;;;;;;;;;;;;;;5021507;28;19918;-76
2023/04/13 06:13:09;;;;;;;;;;;;;;;;;;5042834;28;20064;-75
2023/04/13 06:15:35;;;;;;;;;;;;;;;;;;5053951;28;20035;-75
2023/04/13 06:18:00;;;;;;;;;;;;;;;;;;5038523;28;19917;-71
2023/04/13 06:20:26;;;;;;;;;;;;;;;;;;5021899;28;19921;-72
2023/04/13 06:22:53;;;;;;;;;;;;;;;;;;5023057;28;19963;-72
2023/04/13 06:25:18;;;;;;;;;;;;;;;;;;5021337;28;19935;-72
2023/04/13 06:27:49;;;;;;;;;;;;;;;;;;5024886;28;21021;-73
2023/04/13 06:30:16;;;;;;;;;;;;;;;;;;5058433;28;19927;-74
2023/04/13 06:32:42;;;;;;;;;;;;;;;;;;5040976;28;20051;-71
2023/04/13 06:35:07;;;;;;;;;;;;;;;;;;5039729;28;19939;-72
2023/04/13 06:37:35;;;;;;;;;;;;;;;;;;5040036;28;19920;-72
2023/04/13 06:40:11;;;;;;;;;;;;;;;;;;5042052;28;20331;-73
2023/04/13 06:42:37;;;;;;;;;;;;;;;;;;5056346;28;20002;-72
2023/04/13 06:45:05;;;;;;;;;;;;;;;;;;5025405;28;20294;-74
2023/04/13 06:47:31;;;;;;;;;;;;;;;;;;5052051;28;19921;-71
2023/04/13 06:49:56;;;;;;;;;;;;;;;;;;5025913;28;19921;-73
2023/04/13 06:52:21;;;;;;;;;;;;;;;;;;5024891;28;19959;-73
2023/04/13 06:54:47;;;;;;;;;;;;;;;;;;5023518;28;19917;-74
2023/04/13 06:57:13;;;;;;;;;;;;;;;;;;5041243;28;19948;-74
2023/04/13 06:59:38;;;;;;;;;;;;;;;;;;5024444;28;19972;-74
2023/04/13 07:02:04;;;;;;;;;;;;;;;;;;5023362;28;19931;-75
2023/04/13 07:04:37;;;;;;;;;;;;;;;;;;5176995;22;19928;-91
2023/04/13 07:07:02;;;;;;;;;;;;;;;;;;5080379;28;20512;-90
2023/04/13 07:09:27;;;;;;;;;;;;;;;;;;5075723;28;19924;-90
2023/04/13 07:11:53;;;;;;;;;;;;;;;;;;5073029;28;20383;-87
2023/04/13 07:14:18;;;;;;;;;;;;;;;;;;5075054;28;20295;-89
2023/04/13 07:16:43;;;;;;;;;;;;;;;;;;5058698;28;19920;-89
2023/04/13 07:19:12;;;;;;;;;;;;;;;;;;5090785;28;19916;-88
2023/04/13 07:21:40;;;;;;;;;;;;;;;;;;5059821;28;20363;-91
2023/04/13 07:24:06;;;;;;;;;;;;;;;;;;5076311;28;19912;-88
2023/04/13 07:26:31;;;;;;;;;;;;;;;;;;5091490;28;19924;-88
2023/04/13 07:28:56;;;;;;;;;;;;;;;;;;5073657;28;20296;-90
2023/04/13 07:31:22;;;;;;;;;;;;;;;;;;5074137;28;19912;-90
2023/04/13 07:33:47;;;;;;;;;;;;;;;;;;5076296;28;19924;-89
2023/04/13 07:36:16;;;;;;;;;;;;;;;;;;5060118;28;19999;-88
2023/04/13 07:38:41;;;;;;;;;;;;;;;;;;5107904;28;20416;-92
2023/04/13 07:41:20;;;;;;;;;;;;;;;;;;5075779;28;19923;-89
2023/04/13 07:43:48;;;;;;;;;;;;;;;;;;5090359;28;19938;-88
2023/04/13 07:46:14;;;;;;;;;;;;;;;;;;5075696;28;20018;-87
2023/04/13 07:48:43;;;;;;;;;;;;;;;;;;5061866;28;20440;-91
2023/04/13 07:51:11;;;;;;;;;;;;;;;;;;5108738;28;19920;-91
2023/04/13 07:53:37;;;;;;;;;;;;;;;;;;5070064;28;19920;-88
2023/04/13 07:56:02;;;;;;;;;;;;;;;;;;5071588;28;19924;-89
2023/04/13 07:58:28;;;;;;;;;;;;;;;;;;5056943;28;19912;-90
2023/04/13 08:00:53;;;;;;;;;;;;;;;;;;5089074;28;19916;-89
2023/04/13 08:03:18;;;;;;;;;;;;;;;;;;5072591;28;19966;-86
2023/04/13 08:05:46;;;;;;;;;;;;;;;;;;5069896;28;19930;-85
2023/04/13 08:08:14;;;;;;;;;;;;;;;;;;5089822;28;19912;-91
2023/04/13 08:10:39;;;;;;;;;;;;;;;;;;5071934;28;20085;-88
2023/04/13 08:13:05;;;;;;;;;;;;;;;;;;5063484;28;20054;-87
2023/04/13 08:15:31;;;;;;;;;;;;;;;;;;5097867;28;19923;-88
2023/04/13 08:17:58;;;;;;;;;;;;;;;;;;5059649;28;19952;-91
2023/04/13 08:20:23;;;;;;;;;;;;;;;;;;5090255;28;19912;-89
2023/04/13 08:22:49;;;;;;;;;;;;;;;;;;5057867;28;19912;-90
2023/04/13 08:25:16;;;;;;;;;;;;;;;;;;5081249;28;19908;-90
2023/04/13 08:27:41;;;;;;;;;;;;;;;;;;5062796;28;19927;-88
2023/04/13 08:30:08;;;;;;;;;;;;;;;;;;5076659;28;19912;-88
2023/04/13 08:32:34;;;;;;;;;;;;;;;;;;5062913;28;19927;-86
2023/04/13 08:35:05;;;;;;;;;;;;;;;;;;5064764;28;19912;-89
2023/04/13 08:37:34;;;;;;;;;;;;;;;;;;5082027;28;19920;-91
2023/04/13 08:40:00;;;;;;;;;;;;;;;;;;5061817;28;19915;-89
2023/04/13 08:42:26;;;;;;;;;;;;;;;;;;5077930;28;19919;-86
2023/04/13 08:44:51;;;;;;;;;;;;;;;;;;5077257;28;20002;-85
2023/04/13 08:47:16;;;;;;;;;;;;;;;;;;5092630;28;19912;-85
2023/04/13 08:49:43;;;;;;;;;;;;;;;;;;5093943;28;19896;-86
2023/04/13 08:52:11;;;;;;;;;;;;;;;;;;5103697;28;19907;-88
2023/04/13 08:54:39;;;;;;;;;;;;;;;;;;5079242;28;19916;-88
2023/04/13 08:57:05;;;;;;;;;;;;;;;;;;5094630;28;19923;-88
2023/04/13 08:59:31;;;;;;;;;;;;;;;;;;5093469;28;19990;-86
2023/04/13 09:01:57;;;;;;;;;;;;;;;;;;5071293;28;19912;-90
2023/04/13 09:04:23;;;;;;;;;;;;;;;;;;5069593;28;19916;-90
2023/04/13 09:06:50;;;;;;;;;;;;;;;;;;5080515;28;19912;-91
2023/04/13 09:09:17;;;;;;;;;;;;;;;;;;5078899;28;19936;-86
2023/04/13 09:11:44;;;;;;;;;;;;;;;;;;5105368;28;19942;-86
2023/04/13 09:14:09;;;;;;;;;;;;;;;;;;5076475;28;19912;-87
2023/04/13 09:16:35;;;;;;;;;;;;;;;;;;5093903;28;19912;-87
2023/04/13 09:19:01;;;;;;;;;;;;;;;;;;5073019;28;19983;-86
2023/04/13 09:21:27;;;;;;;;;;;;;;;;;;5073019;28;19923;-88
2023/04/13 09:23:52;;;;;;;;;;;;;;;;;;5069379;28;19912;-87
2023/04/13 09:26:18;;;;;;;;;;;;;;;;;;5065274;28;20547;-88
2023/04/13 09:28:49;;;;;;;;;;;;;;;;;;5063868;28;19912;-85
2023/04/13 09:31:15;;;;;;;;;;;;;;;;;;5077867;28;19916;-87
2023/04/13 09:33:40;;;;;;;;;;;;;;;;;;5082767;28;20359;-90
2023/04/13 09:36:06;;;;;;;;;;;;;;;;;;5072002;28;19916;-87
2023/04/13 09:38:31;;;;;;;;;;;;;;;;;;5072194;28;20009;-88
2023/04/13 09:40:57;;;;;;;;;;;;;;;;;;5104089;28;19920;-87
2023/04/13 09:43:23;;;;;;;;;;;;;;;;;;5069584;28;19912;-86
2023/04/13 09:45:48;;;;;;;;;;;;;;;;;;5068400;28;19982;-88
2023/04/13 09:48:17;;;;;;;;;;;;;;;;;;5087541;28;19970;-88
2023/04/13 09:50:42;;;;;;;;;;;;;;;;;;5082591;28;19912;-89
2023/04/13 09:53:11;;;;;;;;;;;;;;;;;;5084793;28;20076;-89
2023/04/13 09:55:37;;;;;;;;;;;;;;;;;;5102798;28;19916;-87
2023/04/13 09:58:03;;;;;;;;;;;;;;;;;;5072026;28;19909;-87
2023/04/13 10:00:31;;;;;;;;;;;;;;;;;;5067878;28;19912;-88
2023/04/13 10:03:00;;;;;;;;;;;;;;;;;;5071662;28;19920;-86
2023/04/13 10:05:26;;;;;;;;;;;;;;;;;;5070567;28;20413;-88
2023/04/13 10:07:53;;;;;;;;;;;;;;;;;;5068706;28;19916;-87
2023/04/13 10:10:21;;;;;;;;;;;;;;;;;;5065761;28;19992;-87
2023/04/13 10:12:49;;;;;;;;;;;;;;;;;;5069427;28;19917;-86
2023/04/13 10:15:16;;;;;;;;;;;;;;;;;;5083352;28;19958;-88
2023/04/13 10:17:45;;;;;;;;;;;;;;;;;;5066311;28;19939;-86
2023/04/13 10:20:12;;;;;;;;;;;;;;;;;;5058095;28;19984;-87
2023/04/13 10:22:37;;;;;;;;;;;;;;;;;;5058636;28;19923;-85
2023/04/13 10:25:03;;;;;;;;;;;;;;;;;;5059022;28;19912;-86
2023/04/13 10:27:31;;;;;;;;;;;;;;;;;;5060283;28;19960;-86
2023/04/13 10:29:59;;;;;;;;;;;;;;;;;;5057871;28;20003;-87
2023/04/13 10:32:25;;;;;;;;;;;;;;;;;;5065860;28;19920;-88
2023/04/13 10:34:51;;;;;;;;;;;;;;;;;;5073686;28;20272;-91
2023/04/13 10:37:18;;;;;;;;;;;;;;;;;;5090580;28;19912;-87
2023/04/13 10:39:45;;;;;;;;;;;;;;;;;;5057244;28;19920;-90
2023/04/13 10:42:12;;;;;;;;;;;;;;;;;;5074967;28;20309;-89
2023/04/13 10:44:38;;;;;;;;;;;;;;;;;;5059621;28;20265;-89
2023/04/13 10:47:05;;;;;;;;;;;;;;;;;;5089248;28;19924;-90
2023/04/13 10:49:35;;;;;;;;;;;;;;;;;;5059743;28;19920;-91
2023/04/13 10:52:03;;;;;;;;;;;;;;;;;;5091562;28;19952;-92
2023/04/13 10:54:30;;;;;;;;;;;;;;;;;;5071398;28;19924;-90
2023/04/13 10:56:57;;;;;;;;;;;;;;;;;;5091449;28;20003;-88
2023/04/13 10:59:22;;;;;;;;;;;;;;;;;;5064717;28;20030;-88
2023/04/13 11:01:48;;;;;;;;;;;;;;;;;;5083422;28;19922;-88
2023/04/13 11:04:17;;;;;;;;;;;;;;;;;;5075724;28;19912;-88
2023/04/13 11:06:42;;;;;;;;;;;;;;;;;;5058212;28;19958;-86
2023/04/13 11:09:10;;;;;;;;;;;;;;;;;;5055836;28;19912;-94
2023/04/13 11:11:35;;;;;;;;;;;;;;;;;;5075001;28;19943;-87
2023/04/13 11:14:01;;;;;;;;;;;;;;;;;;5056973;28;19919;-89
2023/04/13 11:16:30;;;;;;;;;;;;;;;;;;5078941;28;20260;-87
2023/04/13 11:18:55;;;;;;;;;;;;;;;;;;5059386;28;19916;-89
2023/04/13 11:21:24;;;;;;;;;;;;;;;;;;5061438;28;20353;-90
2023/04/13 11:23:49;;;;;;;;;;;;;;;;;;5093218;28;19916;-87
2023/04/13 11:26:19;;;;;;;;;;;;;;;;;;5075539;28;20022;-88
2023/04/13 11:28:45;;;;;;;;;;;;;;;;;;5074259;28;20560;-88
2023/04/13 11:31:11;;;;;;;;;;;;;;;;;;5076013;28;19912;-87
2023/04/13 11:33:37;;;;;;;;;;;;;;;;;;5060431;28;19916;-87
2023/04/13 11:36:04;;;;;;;;;;;;;;;;;;5059091;28;19980;-89
2023/04/13 11:38:31;;;;;;;;;;;;;;;;;;5073215;28;19947;-90
2023/04/13 11:40:59;;;;;;;;;;;;;;;;;;5057587;28;19913;-91
2023/04/13 11:43:25;;;;;;;;;;;;;;;;;;5058396;28;19974;-87
2023/04/13 11:45:50;;;;;;;;;;;;;;;;;;5062955;28;20484;-87
2023/04/13 11:48:16;;;;;;;;;;;;;;;;;;5061438;28;19912;-90
2023/04/13 11:50:51;;;;;;;;;;;;;;;;;;5058225;28;19912;-90
2023/04/13 11:53:16;;;;;;;;;;;;;;;;;;5057369;28;19927;-89
2023/04/13 11:55:41;;;;;;;;;;;;;;;;;;5058776;28;19961;-86
2023/04/13 11:58:08;;;;;;;;;;;;;;;;;;5078494;28;19912;-91
2023/04/13 12:00:38;;;;;;;;;;;;;;;;;;5072821;28;20054;-87
2023/04/13 12:03:05;;;;;;;;;;;;;;;;;;5106407;28;19916;-88
2023/04/13 12:05:31;;;;;;;;;;;;;;;;;;5058917;28;19931;-89
2023/04/13 12:07:56;;;;;;;;;;;;;;;;;;5058367;28;20340;-87
2023/04/13 12:10:25;;;;;;;;;;;;;;;;;;5092152;28;19920;-90
2023/04/13 12:12:51;;;;;;;;;;;;;;;;;;5072417;28;20007;-89
2023/04/13 12:15:17;;;;;;;;;;;;;;;;;;5055645;28;19920;-88
2023/04/13 12:17:45;;;;;;;;;;;;;;;;;;5072228;28;19916;-90
2023/04/13 12:20:10;;;;;;;;;;;;;;;;;;5090257;28;20284;-89
2023/04/13 12:22:37;;;;;;;;;;;;;;;;;;5073311;28;19912;-87
2023/04/13 12:25:03;;;;;;;;;;;;;;;;;;5056941;28;19920;-88
2023/04/13 12:27:28;;;;;;;;;;;;;;;;;;5056271;28;19950;-90
2023/04/13 12:29:57;;;;;;;;;;;;;;;;;;5073788;28;19920;-92
2023/04/13 12:32:23;;;;;;;;;;;;;;;;;;5075461;28;19912;-92
2023/04/13 12:34:51;;;;;;;;;;;;;;;;;;5071736;28;20018;-88
2023/04/13 12:37:17;;;;;;;;;;;;;;;;;;5074798;28;19923;-88
2023/04/13 12:39:42;;;;;;;;;;;;;;;;;;5057678;28;19913;-86
2023/04/13 12:42:09;;;;;;;;;;;;;;;;;;5054488;28;19931;-87
2023/04/13 12:44:35;;;;;;;;;;;;;;;;;;5057408;28;19916;-91
2023/04/13 12:47:00;;;;;;;;;;;;;;;;;;5057215;28;20363;-88
2023/04/13 12:49:25;;;;;;;;;;;;;;;;;;5075116;28;19916;-86
2023/04/13 12:51:51;;;;;;;;;;;;;;;;;;5057731;28;20256;-88
2023/04/13 12:54:17;;;;;;;;;;;;;;;;;;5073936;28;19916;-88
2023/04/13 12:56:42;;;;;;;;;;;;;;;;;;5059275;28;19931;-87
2023/04/13 12:59:08;;;;;;;;;;;;;;;;;;5072722;28;20288;-88
2023/04/13 13:01:36;;;;;;;;;;;;;;;;;;5059509;28;19920;-86
2023/04/13 13:04:02;;;;;;;;;;;;;;;;;;5065650;28;19920;-89
2023/04/13 13:06:28;;;;;;;;;;;;;;;;;;5074488;28;19921;-90
2023/04/13 13:08:54;;;;;;;;;;;;;;;;;;5089741;28;20338;-89
2023/04/13 13:11:22;;;;;;;;;;;;;;;;;;5056533;28;21767;-89
2023/04/13 13:13:47;;;;;;;;;;;;;;;;;;5059936;28;20010;-89
2023/04/13 13:16:12;;;;;;;;;;;;;;;;;;5056706;28;19912;-90
2023/04/13 13:18:38;;;;;;;;;;;;;;;;;;5056819;28;20241;-89
2023/04/13 13:21:03;;;;;;;;;;;;;;;;;;5075743;28;19921;-87
2023/04/13 13:23:29;;;;;;;;;;;;;;;;;;5063706;28;20022;-86
2023/04/13 13:25:55;;;;;;;;;;;;;;;;;;5081963;28;19920;-91
2023/04/13 13:28:22;;;;;;;;;;;;;;;;;;5073752;28;19994;-91
2023/04/13 13:30:50;;;;;;;;;;;;;;;;;;5056253;28;19912;-90
2023/04/13 13:33:15;;;;;;;;;;;;;;;;;;5052739;28;20015;-89
2023/04/13 13:35:41;;;;;;;;;;;;;;;;;;5056511;28;20072;-88
2023/04/13 13:38:06;;;;;;;;;;;;;;;;;;5057275;28;19923;-87
2023/04/13 13:40:32;;;;;;;;;;;;;;;;;;5056950;28;19927;-90
2023/04/13 13:42:57;;;;;;;;;;;;;;;;;;5057643;28;20287;-88
2023/04/13 13:45:22;;;;;;;;;;;;;;;;;;5060698;28;20276;-88
2023/04/13 13:47:48;;;;;;;;;;;;;;;;;;5062642;28;20591;-89
2023/04/13 13:50:13;;;;;;;;;;;;;;;;;;5064727;28;20019;-86
2023/04/13 13:52:38;;;;;;;;;;;;;;;;;;5072801;28;20293;-88
2023/04/13 13:55:04;;;;;;;;;;;;;;;;;;5063908;28;19916;-88
2023/04/13 13:57:29;;;;;;;;;;;;;;;;;;5066112;28;19927;-87
2023/04/13 13:59:55;;;;;;;;;;;;;;;;;;5063895;28;19908;-87
2023/04/13 14:02:22;;;;;;;;;;;;;;;;;;5068803;28;19912;-88
2023/04/13 14:04:47;;;;;;;;;;;;;;;;;;5067101;28;19920;-87
2023/04/13 14:07:13;;;;;;;;;;;;;;;;;;5087977;28;19984;-88
2023/04/13 14:09:54;;;;;;;;;;;;;;;;;;5057670;28;19946;-84
2023/04/13 14:12:19;;;;;;;;;;;;;;;;;;5051950;28;19916;-89
2023/04/13 14:14:47;;;;;;;;;;;;;;;;;;5076683;28;19951;-90
2023/04/13 14:17:13;;;;;;;;;;;;;;;;;;5048638;28;20087;-90
2023/04/13 14:19:39;;;;;;;;;;;;;;;;;;5063277;28;19916;-88
2023/04/13 14:22:05;;;;;;;;;;;;;;;;;;5052828;28;19916;-89
2023/04/13 14:24:30;;;;;;;;;;;;;;;;;;5044355;28;20027;-90
2023/04/13 14:26:55;;;;;;;;;;;;;;;;;;5064457;28;19924;-89
2023/04/13 14:29:21;;;;;;;;;;;;;;;;;;5046508;28;19978;-88
2023/04/13 14:31:46;;;;;;;;;;;;;;;;;;5060103;28;19912;-91
2023/04/13 14:34:14;;;;;;;;;;;;;;;;;;5046883;28;19917;-89
2023/04/13 14:36:41;;;;;;;;;;;;;;;;;;5064086;28;19969;-88
2023/04/13 14:39:15;;;;;;;;;;;;;;;;;;5060912;28;19966;-88
2023/04/13 14:41:59;;;;;;;;;;;;;;;;;;5046264;28;20420;-87
2023/04/13 14:44:24;;;;;;;;;;;;;;;;;;5049712;28;19936;-91
2023/04/13 14:46:50;;;;;;;;;;;;;;;;;;5048297;28;19931;-91
2023/04/13 14:49:18;;;;;;;;;;;;;;;;;;5064719;28;19916;-87
2023/04/13 14:51:44;;;;;;;;;;;;;;;;;;5048536;28;19931;-88
2023/04/13 14:54:09;;;;;;;;;;;;;;;;;;5049648;28;20261;-88
2023/04/13 14:56:35;;;;;;;;;;;;;;;;;;5065067;28;19923;-90
2023/04/13 14:59:01;;;;;;;;;;;;;;;;;;5049730;28;19963;-88
2023/04/13 15:01:26;;;;;;;;;;;;;;;;;;5049444;28;19928;-91
2023/04/13 15:03:56;;;;;;;;;;;;;;;;;;5052522;28;20566;-87
2023/04/13 15:06:24;;;;;;;;;;;;;;;;;;5057550;28;19931;-88
2023/04/13 15:09:00;;;;;;;;;;;;;;;;;;5058435;28;19912;-89
2023/04/13 15:11:26;;;;;;;;;;;;;;;;;;5042823;28;19967;-88
2023/04/13 15:13:51;;;;;;;;;;;;;;;;;;5043280;28;20033;-89
2023/04/13 15:16:16;;;;;;;;;;;;;;;;;;5038396;28;19916;-88
2023/04/13 15:18:42;;;;;;;;;;;;;;;;;;5057672;28;19921;-91
2023/04/13 15:21:08;;;;;;;;;;;;;;;;;;5058638;28;19912;-88
2023/04/13 15:23:33;;;;;;;;;;;;;;;;;;5043162;28;20033;-90
2023/04/13 15:26:00;;;;;;;;;;;;;;;;;;5042642;28;19943;-91
2023/04/13 15:28:26;;;;;;;;;;;;;;;;;;5038001;28;19920;-87
2023/04/13 15:30:52;;;;;;;;;;;;;;;;;;5059105;28;19970;-88
2023/04/13 15:33:19;;;;;;;;;;;;;;;;;;5036709;28;19932;-89
2023/04/13 15:35:44;;;;;;;;;;;;;;;;;;5033127;28;19925;-90
2023/04/13 15:38:10;;;;;;;;;;;;;;;;;;5043699;28;19984;-90
2023/04/13 15:40:37;;;;;;;;;;;;;;;;;;5061334;28;19928;-93
2023/04/13 15:43:03;;;;;;;;;;;;;;;;;;5083757;28;19935;-88
2023/04/13 15:45:32;;;;;;;;;;;;;;;;;;5042949;28;19913;-88
2023/04/13 15:48:02;;;;;;;;;;;;;;;;;;5040730;28;19950;-89
2023/04/13 15:50:28;;;;;;;;;;;;;;;;;;5056283;28;19927;-90
2023/04/13 15:52:53;;;;;;;;;;;;;;;;;;5040428;28;19913;-88
2023/04/13 15:55:19;;;;;;;;;;;;;;;;;;5043228;28;19980;-91
2023/04/13 15:57:44;;;;;;;;;;;;;;;;;;5059713;28;19913;-89
2023/04/13 16:00:09;;;;;;;;;;;;;;;;;;5044839;28;19924;-87
2023/04/13 16:02:36;;;;;;;;;;;;;;;;;;5062222;28;19920;-89
2023/04/13 16:05:02;;;;;;;;;;;;;;;;;;5051308;28;20333;-90
2023/04/13 16:07:28;;;;;;;;;;;;;;;;;;5080941;28;19912;-89
2023/04/13 16:10:02;;;;;;;;;;;;;;;;;;5082860;28;19923;-89
2023/04/13 16:12:31;;;;;;;;;;;;;;;;;;5067622;28;19913;-89
2023/04/13 16:14:58;;;;;;;;;;;;;;;;;;5055834;28;19992;-88
2023/04/13 16:17:29;;;;;;;;;;;;;;;;;;5055035;28;19923;-89
2023/04/13 16:19:56;;;;;;;;;;;;;;;;;;5106982;28;20247;-90
2023/04/13 16:22:22;;;;;;;;;;;;;;;;;;5056967;28;20348;-90
2023/04/13 16:24:50;;;;;;;;;;;;;;;;;;5058805;28;20050;-88
2023/04/13 16:27:15;;;;;;;;;;;;;;;;;;5078512;28;19920;-87
2023/04/13 16:29:42;;;;;;;;;;;;;;;;;;5099078;28;20355;-87
2023/04/13 16:32:27;;;;;;;;;;;;;;;;;;5081908;28;19921;-89
2023/04/13 16:34:53;;;;;;;;;;;;;;;;;;5077556;28;19915;-86
2023/04/13 16:37:25;;;;;;;;;;;;;;;;;;5093131;28;19912;-89
2023/04/13 16:39:52;;;;;;;;;;;;;;;;;;5091027;28;19935;-88
2023/04/13 16:42:17;;;;;;;;;;;;;;;;;;5081549;28;19919;-87
2023/04/13 16:44:43;;;;;;;;;;;;;;;;;;5097921;28;19901;-87
2023/04/13 16:47:08;;;;;;;;;;;;;;;;;;5078321;28;19908;-84